AIRPORT INFORMATION 18-07-2018 16:07 KNMI / JUMPRUN.NL

SAEHAK A12-CPP NLD 48 m.
181555 ... METAR EHAK 181555Z AUTO 27007KT 260V320 9999 NCD 17/13 Q1019
W///H///=
SAEHAM AMSTERDAM/SCHIPHOL NLD -3 m.
181555 ... METAR EHAM 181555Z 30011KT 270V350 CAVOK 23/11 Q1018 NOSIG=
SAEHBK MAASTRICHT/MAASTRICHT- AACHEN
NLD 114 m.
181555 ... METAR EHBK 181555Z AUTO 24005KT 180V320 9999 NCD 26/08 Q1017 NOSIG=
SAEHDL ARNHEM/DEELEN NLD 48 m.
181555 ... METAR EHDL 181555Z AUTO VRB02KT 9999 OVC063 25/09 Q1018 BLU=
SAEHDV D15-FA-1 NLD 42 m.
181555 ... METAR EHDV 181555Z AUTO 34010KT 9999 NCD 17/13 Q1019 W///H///=
SAEHEH EINDHOVEN/EINDHOVEN NLD 22 m.
181555 ... METAR EHEH 181555Z AUTO 33003KT 250V020 9999 OVC062 25/10 Q1017
BLU 32005KT CAVOK=

SAEHFD F3-FB-1 NLD 50 m.
181555 ... METAR EHFD 181555Z AUTO 27008KT //// // FEW010/// 18/14 Q1019 RE//
W///H///=

SAEHFS VLISSINGEN AWS NLD 8 m.
181555 ... METAR EHFS 181555Z AUTO 35006KT 290V040 9999 FEW039/// 24/12 Q1018
W///H///=

SAEHFZ F16-A NLD 43 m.
181555 ... METAR EHFZ 181555Z AUTO 34006KT 290V360 9999 FEW012 19/15 Q1019
W///H///=

SAEHGG GRONINGEN/EELDE NLD 5 m.
181555 ... METAR EHGG 181555Z AUTO 06007KT 020V100 9999 NSC 23/11 Q1018 NOSIG=
SAEHGR GILZE-RIJEN/GILZE-RIJEN NLD 14 m.
181555 ... METAR EHGR 181555Z AUTO 35006KT 300V080 9999 OVC066 26/09 Q1018
BLU 34006KT CAVOK=

SAEHHW BUITENGAATS/BG-OHVS2   42 m.
181555 ... METAR EHHW 181555Z AUTO 11004KT //// // NCD 18/13 Q1019 RE//
W///H///=
SAEHJA J6-A NLD 45 m.
181555 ... METAR EHJA 181555Z AUTO 01007KT 9999 NCD 18/12 Q//// W///H///=
SAEHJR K13-A NLD 37 m.
181555 ... METAR EHJR 181555Z AUTO 35008KT //// // ///////// 17/16 Q1019 RE//
W17/H4=

SAEHKD DE KOOY/DE KOOY NLD 1 m.
181555 ... METAR EHKD 181555Z AUTO 28007KT 250V310 9999 BKN065 21/15 Q1018
BLU 28012KT CAVOK=

SAEHKV K14-FA-1C NLD 41 m.
181555 ... METAR EHKV 181555Z AUTO 34009KT 9999 NSC 18/16 Q1019 W///H///=
SAEHLW LEEUWARDEN/LEEUWARDEN NLD 1 m.
181555 ... METAR EHLW 181555Z AUTO 02004KT 340V050 9999 OVC044 22/13 Q1018 BLU=
SAEHMA AWG-1 NLD 40 m.
181555 ... METAR EHMA 181555Z AUTO VRB07KT 9999 NSC 23/13 Q1019 W///H///=
SAEHMG L9-FF-1 NLD 44 m.
181555 ... METAR EHMG 181555Z AUTO 13003KT 9999 NCD 20/15 Q1019 W///H///=
SAEHPG P11-B NLD 41 m.
181555 ... METAR EHPG 181555Z AUTO VRB03KT 9999 NSC 17/15 Q1019 W///H///=
SAEHQE HOORN-A NLD 50 m.
181555 ... METAR EHQE 181555Z AUTO 28007KT 9999 NSC 18/16 Q1019 W///H///=
SAEHRD ROTTERDAM/THE HAGUE AIRPORT NLD -5 m.
METAR EHRD 181555Z AUTO 32007KT 270V020 9999 NSC 23/12 Q1018 NOSIG=
181555 ...
SAEHSA EURO PLATFORM NLD 19 m.
181555 ... METAR EHSA 181555Z AUTO 31004KT //// // ///////// 21/15 Q1019 RE//
W17/H4=

SAEHSC LICHTEILAND GOEREE NLD 22 m.
181555 ... METAR EHSC 181555Z AUTO 34006KT 9999 ///////// 18/15 Q1019 W19/H4=
SAEHVK VOLKEL/VOLKEL NLD 21 m.
181555 ... METAR EHVK 181555Z AUTO 36003KT 290V060 9999 BKN069 25/10 Q1017 BLU=
SAEHVL VLIELAND NLD 10 m.
181555 ... METAR EHVL 181555Z AUTO 31005KT 9999 BKN068 20/17 Q1018 BLU=
SAEHWO WOENSDRECHT/WOENSDRECHT NLD 19 m.
181555 ... METAR EHWO 181555Z AUTO 33006KT 320V070 9999 FEW047 BKN057 OVC065
24/12 Q1018 BLU=

ENDOUTPUT